< < Back
Terminal Aerodrome Forecast


Current Version              Previous Versions:   1  2  3  4  5  6  7  8  9  

Terminal Aerodrome Forecast

744
FTUS42 KTAE 191900 AAA
TAFDHN
TAF AMD
KDHN 191905Z 1919/2018 36011KT P6SM BKN020 OVC030
      TEMPO 1919/1923 01014G20KT
     FM200000 02010KT P6SM SCT013 BKN020
     FM200800 02011KT P6SM OVC010=

Latest METAR

968
SAUS70 KWBC 192000 RRA
MTRDHN
METAR KDHN 191953Z 36009KT 10SM BKN022 OVC030 17/12 A3005 RMK AO2 SLP174
T01720122


USA.gov is the U.S. government's official web portal to all federal, state and local government web resources and services.